sensor_id;sensor_type;location;lat;lon;timestamp;P1;durP1;ratioP1;P2;durP2;ratioP2
20842;SDS011;26719;51.440;-2.574;2022-12-10T00:02:25;0.40;;;0.40;;
20842;SDS011;26719;51.440;-2.574;2022-12-10T00:04:51;0.30;;;0.30;;
20842;SDS011;26719;51.440;-2.574;2022-12-10T00:07:18;0.50;;;0.50;;
20842;SDS011;26719;51.440;-2.574;2022-12-10T00:09:44;0.30;;;0.30;;
20842;SDS011;26719;51.440;-2.574;2022-12-10T00:12:10;0.33;;;0.33;;
20842;SDS011;26719;51.440;-2.574;2022-12-10T00:14:36;0.50;;;0.50;;
20842;SDS011;26719;51.440;-2.574;2022-12-10T00:17:03;0.50;;;0.50;;
20842;SDS011;26719;51.440;-2.574;2022-12-10T00:19:29;0.30;;;0.30;;
20842;SDS011;26719;51.440;-2.574;2022-12-10T00:21:55;0.40;;;0.40;;
20842;SDS011;26719;51.440;-2.574;2022-12-10T00:24:21;0.30;;;0.30;;
20842;SDS011;26719;51.440;-2.574;2022-12-10T00:26:47;0.40;;;0.40;;
20842;SDS011;26719;51.440;-2.574;2022-12-10T00:29:14;0.50;;;0.50;;
20842;SDS011;26719;51.440;-2.574;2022-12-10T00:31:40;0.43;;;0.43;;
20842;SDS011;26719;51.440;-2.574;2022-12-10T00:34:07;0.30;;;0.30;;
20842;SDS011;26719;51.440;-2.574;2022-12-10T00:36:36;0.40;;;0.40;;
20842;SDS011;26719;51.440;-2.574;2022-12-10T00:39:03;0.40;;;0.40;;
20842;SDS011;26719;51.440;-2.574;2022-12-10T00:41:30;0.50;;;0.50;;
20842;SDS011;26719;51.440;-2.574;2022-12-10T00:43:56;0.47;;;0.47;;
20842;SDS011;26719;51.440;-2.574;2022-12-10T00:46:23;0.40;;;0.40;;
20842;SDS011;26719;51.440;-2.574;2022-12-10T00:48:49;0.37;;;0.37;;
20842;SDS011;26719;51.440;-2.574;2022-12-10T00:51:22;0.40;;;0.40;;
20842;SDS011;26719;51.440;-2.574;2022-12-10T00:53:49;0.40;;;0.40;;
20842;SDS011;26719;51.440;-2.574;2022-12-10T00:56:17;0.40;;;0.40;;
20842;SDS011;26719;51.440;-2.574;2022-12-10T00:58:44;0.40;;;0.40;;
20842;SDS011;26719;51.440;-2.574;2022-12-10T01:01:12;0.30;;;0.30;;
20842;SDS011;26719;51.440;-2.574;2022-12-10T01:03:40;0.43;;;0.43;;
20842;SDS011;26719;51.440;-2.574;2022-12-10T01:06:07;0.30;;;0.30;;
20842;SDS011;26719;51.440;-2.574;2022-12-10T01:08:34;0.50;;;0.50;;
20842;SDS011;26719;51.440;-2.574;2022-12-10T01:11:01;0.40;;;0.40;;
20842;SDS011;26719;51.440;-2.574;2022-12-10T01:13:28;0.40;;;0.40;;
20842;SDS011;26719;51.440;-2.574;2022-12-10T01:15:54;0.40;;;0.40;;
20842;SDS011;26719;51.440;-2.574;2022-12-10T01:18:20;0.40;;;0.40;;
20842;SDS011;26719;51.440;-2.574;2022-12-10T01:20:46;0.40;;;0.40;;
20842;SDS011;26719;51.440;-2.574;2022-12-10T01:23:13;0.40;;;0.40;;
20842;SDS011;26719;51.440;-2.574;2022-12-10T01:25:39;0.40;;;0.40;;
20842;SDS011;26719;51.440;-2.574;2022-12-10T01:28:05;0.30;;;0.30;;
20842;SDS011;26719;51.440;-2.574;2022-12-10T01:30:32;0.20;;;0.20;;
20842;SDS011;26719;51.440;-2.574;2022-12-10T01:32:58;0.30;;;0.30;;
20842;SDS011;26719;51.440;-2.574;2022-12-10T01:35:24;0.40;;;0.40;;
20842;SDS011;26719;51.440;-2.574;2022-12-10T01:37:50;0.50;;;0.50;;
20842;SDS011;26719;51.440;-2.574;2022-12-10T01:40:16;0.40;;;0.40;;
20842;SDS011;26719;51.440;-2.574;2022-12-10T01:42:43;0.40;;;0.40;;
20842;SDS011;26719;51.440;-2.574;2022-12-10T01:45:10;0.53;;;0.53;;
20842;SDS011;26719;51.440;-2.574;2022-12-10T01:47:37;0.40;;;0.40;;
20842;SDS011;26719;51.440;-2.574;2022-12-10T01:50:04;0.50;;;0.50;;
20842;SDS011;26719;51.440;-2.574;2022-12-10T01:52:31;0.30;;;0.30;;
20842;SDS011;26719;51.440;-2.574;2022-12-10T01:54:57;0.30;;;0.30;;
20842;SDS011;26719;51.440;-2.574;2022-12-10T01:57:24;0.40;;;0.40;;
20842;SDS011;26719;51.440;-2.574;2022-12-10T01:59:52;0.40;;;0.40;;
20842;SDS011;26719;51.440;-2.574;2022-12-10T02:05:01;0.50;;;0.50;;
20842;SDS011;26719;51.440;-2.574;2022-12-10T02:12:47;0.40;;;0.40;;
20842;SDS011;26719;51.440;-2.574;2022-12-10T02:16:02;0.60;;;0.60;;
20842;SDS011;26719;51.440;-2.574;2022-12-10T02:18:08;0.53;;;0.53;;
20842;SDS011;26719;51.440;-2.574;2022-12-10T02:20:37;0.40;;;0.40;;
20842;SDS011;26719;51.440;-2.574;2022-12-10T02:23:05;0.33;;;0.33;;
20842;SDS011;26719;51.440;-2.574;2022-12-10T02:25:38;0.30;;;0.30;;
20842;SDS011;26719;51.440;-2.574;2022-12-10T02:30:51;0.50;;;0.50;;
20842;SDS011;26719;51.440;-2.574;2022-12-10T02:33:18;0.30;;;0.30;;
20842;SDS011;26719;51.440;-2.574;2022-12-10T02:35:46;0.40;;;0.40;;
20842;SDS011;26719;51.440;-2.574;2022-12-10T02:38:18;0.40;;;0.40;;
20842;SDS011;26719;51.440;-2.574;2022-12-10T02:40:46;0.30;;;0.30;;
20842;SDS011;26719;51.440;-2.574;2022-12-10T02:43:13;0.30;;;0.30;;
20842;SDS011;26719;51.440;-2.574;2022-12-10T02:45:40;0.30;;;0.30;;
20842;SDS011;26719;51.440;-2.574;2022-12-10T02:48:07;0.33;;;0.33;;
20842;SDS011;26719;51.440;-2.574;2022-12-10T02:50:35;0.40;;;0.40;;
20842;SDS011;26719;51.440;-2.574;2022-12-10T02:53:01;0.50;;;0.50;;
20842;SDS011;26719;51.440;-2.574;2022-12-10T02:55:28;0.50;;;0.50;;
20842;SDS011;26719;51.440;-2.574;2022-12-10T02:58:13;0.40;;;0.40;;
20842;SDS011;26719;51.440;-2.574;2022-12-10T03:00:46;0.40;;;0.40;;
20842;SDS011;26719;51.440;-2.574;2022-12-10T03:06:09;0.50;;;0.50;;
20842;SDS011;26719;51.440;-2.574;2022-12-10T03:11:13;0.40;;;0.40;;
20842;SDS011;26719;51.440;-2.574;2022-12-10T03:13:51;0.30;;;0.30;;
20842;SDS011;26719;51.440;-2.574;2022-12-10T03:16:20;0.40;;;0.40;;
20842;SDS011;26719;51.440;-2.574;2022-12-10T03:18:47;0.50;;;0.50;;
20842;SDS011;26719;51.440;-2.574;2022-12-10T03:21:14;0.43;;;0.43;;
20842;SDS011;26719;51.440;-2.574;2022-12-10T03:23:42;0.43;;;0.43;;
20842;SDS011;26719;51.440;-2.574;2022-12-10T03:26:09;0.50;;;0.50;;
20842;SDS011;26719;51.440;-2.574;2022-12-10T03:28:41;0.40;;;0.40;;
20842;SDS011;26719;51.440;-2.574;2022-12-10T03:31:09;0.40;;;0.40;;
20842;SDS011;26719;51.440;-2.574;2022-12-10T03:33:36;0.47;;;0.47;;
20842;SDS011;26719;51.440;-2.574;2022-12-10T03:36:03;0.50;;;0.50;;
20842;SDS011;26719;51.440;-2.574;2022-12-10T03:38:30;0.40;;;0.40;;
20842;SDS011;26719;51.440;-2.574;2022-12-10T03:40:56;0.40;;;0.40;;
20842;SDS011;26719;51.440;-2.574;2022-12-10T03:43:22;0.50;;;0.50;;
20842;SDS011;26719;51.440;-2.574;2022-12-10T03:45:48;0.53;;;0.53;;
20842;SDS011;26719;51.440;-2.574;2022-12-10T03:48:15;0.50;;;0.50;;
20842;SDS011;26719;51.440;-2.574;2022-12-10T03:50:41;0.50;;;0.50;;
20842;SDS011;26719;51.440;-2.574;2022-12-10T03:53:07;0.50;;;0.50;;
20842;SDS011;26719;51.440;-2.574;2022-12-10T03:55:34;0.40;;;0.40;;
20842;SDS011;26719;51.440;-2.574;2022-12-10T03:58:00;0.53;;;0.53;;
20842;SDS011;26719;51.440;-2.574;2022-12-10T04:00:26;0.60;;;0.60;;
20842;SDS011;26719;51.440;-2.574;2022-12-10T04:02:52;0.50;;;0.50;;
20842;SDS011;26719;51.440;-2.574;2022-12-10T04:05:19;0.50;;;0.50;;
20842;SDS011;26719;51.440;-2.574;2022-12-10T04:07:45;0.40;;;0.40;;
20842;SDS011;26719;51.440;-2.574;2022-12-10T04:10:11;0.60;;;0.60;;
20842;SDS011;26719;51.440;-2.574;2022-12-10T04:12:38;0.50;;;0.50;;
20842;SDS011;26719;51.440;-2.574;2022-12-10T04:15:04;0.40;;;0.40;;
20842;SDS011;26719;51.440;-2.574;2022-12-10T04:17:49;0.57;;;0.57;;
20842;SDS011;26719;51.440;-2.574;2022-12-10T04:20:15;0.40;;;0.40;;
20842;SDS011;26719;51.440;-2.574;2022-12-10T04:23:00;0.40;;;0.40;;
20842;SDS011;26719;51.440;-2.574;2022-12-10T04:25:45;0.40;;;0.40;;
20842;SDS011;26719;51.440;-2.574;2022-12-10T04:28:30;0.40;;;0.40;;
20842;SDS011;26719;51.440;-2.574;2022-12-10T04:30:56;0.50;;;0.50;;
20842;SDS011;26719;51.440;-2.574;2022-12-10T04:33:22;0.60;;;0.60;;
20842;SDS011;26719;51.440;-2.574;2022-12-10T04:35:49;0.63;;;0.63;;
20842;SDS011;26719;51.440;-2.574;2022-12-10T04:38:15;0.40;;;0.40;;
20842;SDS011;26719;51.440;-2.574;2022-12-10T04:40:41;0.60;;;0.60;;
20842;SDS011;26719;51.440;-2.574;2022-12-10T04:43:07;0.40;;;0.40;;
20842;SDS011;26719;51.440;-2.574;2022-12-10T04:45:34;0.40;;;0.40;;
20842;SDS011;26719;51.440;-2.574;2022-12-10T04:48:00;0.57;;;0.57;;
20842;SDS011;26719;51.440;-2.574;2022-12-10T04:50:27;0.50;;;0.50;;
20842;SDS011;26719;51.440;-2.574;2022-12-10T04:52:53;0.50;;;0.50;;
20842;SDS011;26719;51.440;-2.574;2022-12-10T04:55:19;0.40;;;0.40;;
20842;SDS011;26719;51.440;-2.574;2022-12-10T04:57:45;0.60;;;0.60;;
20842;SDS011;26719;51.440;-2.574;2022-12-10T05:00:12;0.43;;;0.43;;
20842;SDS011;26719;51.440;-2.574;2022-12-10T05:02:38;0.40;;;0.40;;
20842;SDS011;26719;51.440;-2.574;2022-12-10T05:05:04;0.40;;;0.40;;
20842;SDS011;26719;51.440;-2.574;2022-12-10T05:07:30;0.50;;;0.50;;
20842;SDS011;26719;51.440;-2.574;2022-12-10T05:09:58;0.33;;;0.33;;
20842;SDS011;26719;51.440;-2.574;2022-12-10T05:12:24;0.47;;;0.47;;
20842;SDS011;26719;51.440;-2.574;2022-12-10T05:14:50;0.40;;;0.40;;
20842;SDS011;26719;51.440;-2.574;2022-12-10T05:17:17;0.33;;;0.33;;
20842;SDS011;26719;51.440;-2.574;2022-12-10T05:19:43;0.40;;;0.40;;
20842;SDS011;26719;51.440;-2.574;2022-12-10T05:22:09;0.40;;;0.40;;
20842;SDS011;26719;51.440;-2.574;2022-12-10T05:24:54;0.20;;;0.20;;
20842;SDS011;26719;51.440;-2.574;2022-12-10T05:27:20;0.50;;;0.50;;
20842;SDS011;26719;51.440;-2.574;2022-12-10T05:29:46;0.50;;;0.50;;
20842;SDS011;26719;51.440;-2.574;2022-12-10T05:32:12;0.40;;;0.40;;
20842;SDS011;26719;51.440;-2.574;2022-12-10T05:34:38;0.50;;;0.50;;
20842;SDS011;26719;51.440;-2.574;2022-12-10T05:37:04;0.50;;;0.50;;
20842;SDS011;26719;51.440;-2.574;2022-12-10T05:39:31;0.40;;;0.40;;
20842;SDS011;26719;51.440;-2.574;2022-12-10T05:41:57;0.50;;;0.50;;
20842;SDS011;26719;51.440;-2.574;2022-12-10T05:44:23;0.20;;;0.20;;
20842;SDS011;26719;51.440;-2.574;2022-12-10T05:46:49;0.50;;;0.50;;
20842;SDS011;26719;51.440;-2.574;2022-12-10T05:49:17;0.50;;;0.50;;
20842;SDS011;26719;51.440;-2.574;2022-12-10T05:51:44;0.40;;;0.40;;
20842;SDS011;26719;51.440;-2.574;2022-12-10T05:54:10;0.40;;;0.40;;
20842;SDS011;26719;51.440;-2.574;2022-12-10T05:56:36;0.30;;;0.30;;
20842;SDS011;26719;51.440;-2.574;2022-12-10T05:59:03;0.43;;;0.43;;
20842;SDS011;26719;51.440;-2.574;2022-12-10T06:01:31;0.40;;;0.40;;
20842;SDS011;26719;51.440;-2.574;2022-12-10T06:03:59;0.40;;;0.40;;
20842;SDS011;26719;51.440;-2.574;2022-12-10T06:06:27;0.40;;;0.40;;
20842;SDS011;26719;51.440;-2.574;2022-12-10T06:08:54;0.50;;;0.50;;
20842;SDS011;26719;51.440;-2.574;2022-12-10T06:11:20;0.50;;;0.50;;
20842;SDS011;26719;51.440;-2.574;2022-12-10T06:13:47;0.50;;;0.50;;
20842;SDS011;26719;51.440;-2.574;2022-12-10T06:16:13;0.20;;;0.20;;
20842;SDS011;26719;51.440;-2.574;2022-12-10T06:18:40;0.30;;;0.30;;
20842;SDS011;26719;51.440;-2.574;2022-12-10T06:21:07;0.40;;;0.40;;
20842;SDS011;26719;51.440;-2.574;2022-12-10T06:23:34;0.37;;;0.37;;
20842;SDS011;26719;51.440;-2.574;2022-12-10T06:26:10;0.53;;;0.53;;
20842;SDS011;26719;51.440;-2.574;2022-12-10T06:28:37;0.40;;;0.40;;
20842;SDS011;26719;51.440;-2.574;2022-12-10T06:31:04;0.50;;;0.50;;
20842;SDS011;26719;51.440;-2.574;2022-12-10T06:33:30;0.60;;;0.60;;
20842;SDS011;26719;51.440;-2.574;2022-12-10T06:35:56;0.40;;;0.40;;
20842;SDS011;26719;51.440;-2.574;2022-12-10T06:38:23;0.50;;;0.50;;
20842;SDS011;26719;51.440;-2.574;2022-12-10T06:40:49;0.57;;;0.57;;
20842;SDS011;26719;51.440;-2.574;2022-12-10T06:43:16;0.40;;;0.40;;
20842;SDS011;26719;51.440;-2.574;2022-12-10T06:45:42;0.50;;;0.50;;
20842;SDS011;26719;51.440;-2.574;2022-12-10T06:48:09;0.50;;;0.50;;
20842;SDS011;26719;51.440;-2.574;2022-12-10T06:50:35;0.40;;;0.40;;
20842;SDS011;26719;51.440;-2.574;2022-12-10T06:53:01;0.30;;;0.30;;
20842;SDS011;26719;51.440;-2.574;2022-12-10T06:55:27;0.47;;;0.47;;
20842;SDS011;26719;51.440;-2.574;2022-12-10T06:57:54;0.40;;;0.40;;
20842;SDS011;26719;51.440;-2.574;2022-12-10T07:00:20;0.40;;;0.40;;
20842;SDS011;26719;51.440;-2.574;2022-12-10T07:02:46;0.40;;;0.40;;
20842;SDS011;26719;51.440;-2.574;2022-12-10T07:05:13;0.30;;;0.30;;
20842;SDS011;26719;51.440;-2.574;2022-12-10T07:07:39;0.50;;;0.50;;
20842;SDS011;26719;51.440;-2.574;2022-12-10T07:10:05;0.40;;;0.40;;
20842;SDS011;26719;51.440;-2.574;2022-12-10T07:12:32;0.43;;;0.43;;
20842;SDS011;26719;51.440;-2.574;2022-12-10T07:14:58;0.30;;;0.30;;
20842;SDS011;26719;51.440;-2.574;2022-12-10T07:17:24;0.33;;;0.33;;
20842;SDS011;26719;51.440;-2.574;2022-12-10T07:19:50;0.50;;;0.50;;
20842;SDS011;26719;51.440;-2.574;2022-12-10T07:22:17;0.40;;;0.40;;
20842;SDS011;26719;51.440;-2.574;2022-12-10T07:24:43;0.30;;;0.30;;
20842;SDS011;26719;51.440;-2.574;2022-12-10T07:27:09;0.30;;;0.30;;
20842;SDS011;26719;51.440;-2.574;2022-12-10T07:29:38;0.50;;;0.50;;
20842;SDS011;26719;51.440;-2.574;2022-12-10T07:32:04;0.47;;;0.47;;
20842;SDS011;26719;51.440;-2.574;2022-12-10T07:34:30;0.40;;;0.40;;
20842;SDS011;26719;51.440;-2.574;2022-12-10T07:36:57;0.50;;;0.50;;
20842;SDS011;26719;51.440;-2.574;2022-12-10T07:39:23;0.33;;;0.33;;
20842;SDS011;26719;51.440;-2.574;2022-12-10T07:41:50;0.40;;;0.40;;
20842;SDS011;26719;51.440;-2.574;2022-12-10T07:44:20;0.50;;;0.50;;
20842;SDS011;26719;51.440;-2.574;2022-12-10T07:46:47;0.50;;;0.50;;
20842;SDS011;26719;51.440;-2.574;2022-12-10T07:49:14;0.40;;;0.40;;
20842;SDS011;26719;51.440;-2.574;2022-12-10T07:51:43;0.40;;;0.40;;
20842;SDS011;26719;51.440;-2.574;2022-12-10T07:54:09;0.50;;;0.50;;
20842;SDS011;26719;51.440;-2.574;2022-12-10T07:56:35;0.40;;;0.40;;
20842;SDS011;26719;51.440;-2.574;2022-12-10T07:59:02;0.40;;;0.40;;
20842;SDS011;26719;51.440;-2.574;2022-12-10T08:01:28;0.40;;;0.40;;
20842;SDS011;26719;51.440;-2.574;2022-12-10T08:03:55;0.40;;;0.40;;
20842;SDS011;26719;51.440;-2.574;2022-12-10T08:06:21;0.50;;;0.50;;
20842;SDS011;26719;51.440;-2.574;2022-12-10T08:08:48;0.43;;;0.43;;
20842;SDS011;26719;51.440;-2.574;2022-12-10T08:11:15;0.43;;;0.43;;
20842;SDS011;26719;51.440;-2.574;2022-12-10T08:13:41;0.40;;;0.40;;
20842;SDS011;26719;51.440;-2.574;2022-12-10T08:16:15;0.50;;;0.50;;
20842;SDS011;26719;51.440;-2.574;2022-12-10T08:18:41;0.50;;;0.50;;
20842;SDS011;26719;51.440;-2.574;2022-12-10T08:21:11;0.40;;;0.40;;
20842;SDS011;26719;51.440;-2.574;2022-12-10T08:23:38;0.40;;;0.40;;
20842;SDS011;26719;51.440;-2.574;2022-12-10T08:26:04;0.50;;;0.50;;
20842;SDS011;26719;51.440;-2.574;2022-12-10T08:28:31;0.40;;;0.40;;
20842;SDS011;26719;51.440;-2.574;2022-12-10T08:30:57;0.40;;;0.40;;
20842;SDS011;26719;51.440;-2.574;2022-12-10T08:33:23;0.40;;;0.40;;
20842;SDS011;26719;51.440;-2.574;2022-12-10T08:35:49;0.40;;;0.40;;
20842;SDS011;26719;51.440;-2.574;2022-12-10T08:38:15;0.30;;;0.30;;
20842;SDS011;26719;51.440;-2.574;2022-12-10T08:40:42;0.40;;;0.40;;
20842;SDS011;26719;51.440;-2.574;2022-12-10T08:43:09;0.40;;;0.40;;
20842;SDS011;26719;51.440;-2.574;2022-12-10T08:45:35;0.40;;;0.40;;
20842;SDS011;26719;51.440;-2.574;2022-12-10T08:48:02;0.40;;;0.40;;
20842;SDS011;26719;51.440;-2.574;2022-12-10T08:50:28;0.40;;;0.40;;
20842;SDS011;26719;51.440;-2.574;2022-12-10T08:52:54;0.40;;;0.40;;
20842;SDS011;26719;51.440;-2.574;2022-12-10T08:55:21;0.50;;;0.50;;
20842;SDS011;26719;51.440;-2.574;2022-12-10T08:57:47;0.30;;;0.30;;
20842;SDS011;26719;51.440;-2.574;2022-12-10T09:00:13;0.37;;;0.37;;
20842;SDS011;26719;51.440;-2.574;2022-12-10T09:02:39;0.50;;;0.50;;
20842;SDS011;26719;51.440;-2.574;2022-12-10T09:05:06;0.30;;;0.30;;
20842;SDS011;26719;51.440;-2.574;2022-12-10T09:07:33;0.40;;;0.40;;
20842;SDS011;26719;51.440;-2.574;2022-12-10T09:09:59;0.30;;;0.30;;
20842;SDS011;26719;51.440;-2.574;2022-12-10T09:12:25;0.33;;;0.33;;
20842;SDS011;26719;51.440;-2.574;2022-12-10T09:14:51;0.30;;;0.30;;
20842;SDS011;26719;51.440;-2.574;2022-12-10T09:17:17;0.30;;;0.30;;
20842;SDS011;26719;51.440;-2.574;2022-12-10T09:19:44;0.50;;;0.50;;
20842;SDS011;26719;51.440;-2.574;2022-12-10T09:22:10;0.53;;;0.53;;
20842;SDS011;26719;51.440;-2.574;2022-12-10T09:24:36;0.30;;;0.30;;
20842;SDS011;26719;51.440;-2.574;2022-12-10T09:27:02;0.30;;;0.30;;
20842;SDS011;26719;51.440;-2.574;2022-12-10T09:29:29;0.30;;;0.30;;
20842;SDS011;26719;51.440;-2.574;2022-12-10T09:31:55;0.30;;;0.30;;
20842;SDS011;26719;51.440;-2.574;2022-12-10T09:34:21;0.40;;;0.40;;
20842;SDS011;26719;51.440;-2.574;2022-12-10T09:36:47;0.40;;;0.40;;
20842;SDS011;26719;51.440;-2.574;2022-12-10T09:39:13;0.40;;;0.40;;
20842;SDS011;26719;51.440;-2.574;2022-12-10T09:41:52;0.30;;;0.30;;
20842;SDS011;26719;51.440;-2.574;2022-12-10T09:46:49;0.30;;;0.30;;
20842;SDS011;26719;51.440;-2.574;2022-12-10T09:51:49;0.30;;;0.30;;
20842;SDS011;26719;51.440;-2.574;2022-12-10T09:54:24;0.30;;;0.30;;
20842;SDS011;26719;51.440;-2.574;2022-12-10T09:56:50;0.30;;;0.30;;
20842;SDS011;26719;51.440;-2.574;2022-12-10T09:59:40;0.20;;;0.20;;
20842;SDS011;26719;51.440;-2.574;2022-12-10T10:04:36;0.20;;;0.20;;
20842;SDS011;26719;51.440;-2.574;2022-12-10T10:07:03;0.20;;;0.20;;
20842;SDS011;26719;51.440;-2.574;2022-12-10T10:09:30;0.20;;;0.20;;
20842;SDS011;26719;51.440;-2.574;2022-12-10T10:11:58;0.20;;;0.20;;
20842;SDS011;26719;51.440;-2.574;2022-12-10T10:14:25;0.10;;;0.10;;
20842;SDS011;26719;51.440;-2.574;2022-12-10T10:17:35;0.10;;;0.10;;
20842;SDS011;26719;51.440;-2.574;2022-12-10T10:19:43;0.10;;;0.10;;
20842;SDS011;26719;51.440;-2.574;2022-12-10T10:22:09;0.10;;;0.10;;
20842;SDS011;26719;51.440;-2.574;2022-12-10T10:24:37;0.10;;;0.10;;
20842;SDS011;26719;51.440;-2.574;2022-12-10T10:29:37;0.10;;;0.10;;
20842;SDS011;26719;51.440;-2.574;2022-12-10T10:32:11;0.10;;;0.10;;
20842;SDS011;26719;51.440;-2.574;2022-12-10T10:34:38;0.10;;;0.10;;
20842;SDS011;26719;51.440;-2.574;2022-12-10T10:37:04;0.00;;;0.00;;
20842;SDS011;26719;51.440;-2.574;2022-12-10T10:39:33;0.00;;;0.00;;
20842;SDS011;26719;51.440;-2.574;2022-12-10T10:42:00;0.07;;;0.07;;
20842;SDS011;26719;51.440;-2.574;2022-12-10T10:44:36;0.10;;;0.10;;
20842;SDS011;26719;51.440;-2.574;2022-12-10T10:47:03;0.10;;;0.10;;
20842;SDS011;26719;51.440;-2.574;2022-12-10T10:49:48;0.10;;;0.10;;
20842;SDS011;26719;51.440;-2.574;2022-12-10T10:52:15;0.00;;;0.00;;
20842;SDS011;26719;51.440;-2.574;2022-12-10T10:54:42;0.00;;;0.00;;
20842;SDS011;26719;51.440;-2.574;2022-12-10T10:59:44;0.00;;;0.00;;
20842;SDS011;26719;51.440;-2.574;2022-12-10T11:04:47;0.00;;;0.00;;
20842;SDS011;26719;51.440;-2.574;2022-12-10T11:07:21;0.10;;;0.10;;
20842;SDS011;26719;51.440;-2.574;2022-12-10T11:09:48;0.00;;;0.00;;
20842;SDS011;26719;51.440;-2.574;2022-12-10T11:14:49;0.10;;;0.10;;
20842;SDS011;26719;51.440;-2.574;2022-12-10T11:17:19;0.00;;;0.00;;
20842;SDS011;26719;51.440;-2.574;2022-12-10T11:22:22;0.10;;;0.10;;
20842;SDS011;26719;51.440;-2.574;2022-12-10T11:24:49;0.00;;;0.00;;
20842;SDS011;26719;51.440;-2.574;2022-12-10T11:27:24;0.03;;;0.03;;
20842;SDS011;26719;51.440;-2.574;2022-12-10T11:30:04;0.00;;;0.00;;
20842;SDS011;26719;51.440;-2.574;2022-12-10T11:37:32;0.10;;;0.10;;
20842;SDS011;26719;51.440;-2.574;2022-12-10T11:40:10;0.03;;;0.03;;
20842;SDS011;26719;51.440;-2.574;2022-12-10T12:00:48;0.10;;;0.10;;
20842;SDS011;26719;51.440;-2.574;2022-12-10T12:06:02;0.00;;;0.00;;
20842;SDS011;26719;51.440;-2.574;2022-12-10T12:16:24;0.10;;;0.10;;
20842;SDS011;26719;51.440;-2.574;2022-12-10T12:18:54;0.10;;;0.10;;
20842;SDS011;26719;51.440;-2.574;2022-12-10T12:21:21;0.10;;;0.10;;
20842;SDS011;26719;51.440;-2.574;2022-12-10T12:29:16;0.10;;;0.10;;
20842;SDS011;26719;51.440;-2.574;2022-12-10T12:31:45;0.10;;;0.10;;
20842;SDS011;26719;51.440;-2.574;2022-12-10T12:34:24;0.10;;;0.10;;
20842;SDS011;26719;51.440;-2.574;2022-12-10T12:36:52;0.10;;;0.10;;
20842;SDS011;26719;51.440;-2.574;2022-12-10T12:46:55;0.00;;;0.00;;
20842;SDS011;26719;51.440;-2.574;2022-12-10T12:49:24;0.10;;;0.10;;
20842;SDS011;26719;51.440;-2.574;2022-12-10T12:51:54;0.10;;;0.10;;
20842;SDS011;26719;51.440;-2.574;2022-12-10T12:54:22;0.07;;;0.07;;
20842;SDS011;26719;51.440;-2.574;2022-12-10T13:04:30;0.00;;;0.00;;
20842;SDS011;26719;51.440;-2.574;2022-12-10T13:12:29;0.00;;;0.00;;
20842;SDS011;26719;51.440;-2.574;2022-12-10T13:20:24;0.00;;;0.00;;
20842;SDS011;26719;51.440;-2.574;2022-12-10T13:22:41;0.10;;;0.10;;
20842;SDS011;26719;51.440;-2.574;2022-12-10T13:27:36;0.10;;;0.10;;
20842;SDS011;26719;51.440;-2.574;2022-12-10T13:37:33;0.10;;;0.10;;
20842;SDS011;26719;51.440;-2.574;2022-12-10T13:42:35;0.10;;;0.10;;
20842;SDS011;26719;51.440;-2.574;2022-12-10T13:47:49;0.00;;;0.00;;
20842;SDS011;26719;51.440;-2.574;2022-12-10T14:06:19;0.00;;;0.00;;
20842;SDS011;26719;51.440;-2.574;2022-12-10T14:11:49;0.00;;;0.00;;
20842;SDS011;26719;51.440;-2.574;2022-12-10T14:14:22;0.10;;;0.10;;
20842;SDS011;26719;51.440;-2.574;2022-12-10T14:16:48;0.10;;;0.10;;
20842;SDS011;26719;51.440;-2.574;2022-12-10T14:19:15;0.10;;;0.10;;
20842;SDS011;26719;51.440;-2.574;2022-12-10T14:21:42;0.10;;;0.10;;
20842;SDS011;26719;51.440;-2.574;2022-12-10T14:24:33;0.10;;;0.10;;
20842;SDS011;26719;51.440;-2.574;2022-12-10T14:27:02;0.10;;;0.10;;
20842;SDS011;26719;51.440;-2.574;2022-12-10T14:29:29;0.10;;;0.10;;
20842;SDS011;26719;51.440;-2.574;2022-12-10T14:31:55;0.20;;;0.20;;
20842;SDS011;26719;51.440;-2.574;2022-12-10T14:34:26;0.20;;;0.20;;
20842;SDS011;26719;51.440;-2.574;2022-12-10T14:36:56;0.10;;;0.10;;
20842;SDS011;26719;51.440;-2.574;2022-12-10T14:39:26;0.20;;;0.20;;
20842;SDS011;26719;51.440;-2.574;2022-12-10T14:41:55;0.20;;;0.20;;
20842;SDS011;26719;51.440;-2.574;2022-12-10T14:44:21;0.20;;;0.20;;
20842;SDS011;26719;51.440;-2.574;2022-12-10T14:46:48;0.30;;;0.30;;
20842;SDS011;26719;51.440;-2.574;2022-12-10T14:49:16;0.30;;;0.30;;
20842;SDS011;26719;51.440;-2.574;2022-12-10T14:51:43;0.30;;;0.30;;
20842;SDS011;26719;51.440;-2.574;2022-12-10T14:54:28;0.23;;;0.23;;
20842;SDS011;26719;51.440;-2.574;2022-12-10T14:56:56;0.20;;;0.20;;
20842;SDS011;26719;51.440;-2.574;2022-12-10T14:59:26;0.20;;;0.20;;
20842;SDS011;26719;51.440;-2.574;2022-12-10T15:01:56;0.30;;;0.30;;
20842;SDS011;26719;51.440;-2.574;2022-12-10T15:04:23;0.20;;;0.20;;
20842;SDS011;26719;51.440;-2.574;2022-12-10T15:06:49;0.20;;;0.20;;
20842;SDS011;26719;51.440;-2.574;2022-12-10T15:09:18;0.20;;;0.20;;
20842;SDS011;26719;51.440;-2.574;2022-12-10T15:11:45;0.30;;;0.30;;
20842;SDS011;26719;51.440;-2.574;2022-12-10T15:14:15;0.20;;;0.20;;
20842;SDS011;26719;51.440;-2.574;2022-12-10T15:16:42;0.20;;;0.20;;
20842;SDS011;26719;51.440;-2.574;2022-12-10T15:21:58;0.30;;;0.30;;
20842;SDS011;26719;51.440;-2.574;2022-12-10T15:24:42;0.30;;;0.30;;
20842;SDS011;26719;51.440;-2.574;2022-12-10T15:27:21;0.30;;;0.30;;
20842;SDS011;26719;51.440;-2.574;2022-12-10T15:29:48;0.30;;;0.30;;
20842;SDS011;26719;51.440;-2.574;2022-12-10T15:32:32;0.20;;;0.20;;
20842;SDS011;26719;51.440;-2.574;2022-12-10T15:35:00;0.20;;;0.20;;
20842;SDS011;26719;51.440;-2.574;2022-12-10T15:37:32;0.23;;;0.23;;
20842;SDS011;26719;51.440;-2.574;2022-12-10T15:39:59;0.20;;;0.20;;
20842;SDS011;26719;51.440;-2.574;2022-12-10T15:42:47;0.20;;;0.20;;
20842;SDS011;26719;51.440;-2.574;2022-12-10T15:47:47;0.20;;;0.20;;
20842;SDS011;26719;51.440;-2.574;2022-12-10T15:50:13;0.20;;;0.20;;
20842;SDS011;26719;51.440;-2.574;2022-12-10T15:52:40;0.23;;;0.23;;
20842;SDS011;26719;51.440;-2.574;2022-12-10T15:55:06;0.20;;;0.20;;
20842;SDS011;26719;51.440;-2.574;2022-12-10T15:57:36;0.20;;;0.20;;
20842;SDS011;26719;51.440;-2.574;2022-12-10T16:00:08;0.30;;;0.30;;
20842;SDS011;26719;51.440;-2.574;2022-12-10T16:02:40;0.30;;;0.30;;
20842;SDS011;26719;51.440;-2.574;2022-12-10T16:05:27;0.20;;;0.20;;
20842;SDS011;26719;51.440;-2.574;2022-12-10T16:07:58;0.30;;;0.30;;
20842;SDS011;26719;51.440;-2.574;2022-12-10T16:10:26;0.20;;;0.20;;
20842;SDS011;26719;51.440;-2.574;2022-12-10T16:13:02;0.20;;;0.20;;
20842;SDS011;26719;51.440;-2.574;2022-12-10T16:15:30;0.30;;;0.30;;
20842;SDS011;26719;51.440;-2.574;2022-12-10T16:18:00;0.30;;;0.30;;
20842;SDS011;26719;51.440;-2.574;2022-12-10T16:20:28;0.30;;;0.30;;
20842;SDS011;26719;51.440;-2.574;2022-12-10T16:22:55;0.10;;;0.10;;
20842;SDS011;26719;51.440;-2.574;2022-12-10T16:25:22;0.23;;;0.23;;
20842;SDS011;26719;51.440;-2.574;2022-12-10T16:27:48;0.30;;;0.30;;
20842;SDS011;26719;51.440;-2.574;2022-12-10T16:30:23;0.23;;;0.23;;
20842;SDS011;26719;51.440;-2.574;2022-12-10T16:32:49;0.30;;;0.30;;
20842;SDS011;26719;51.440;-2.574;2022-12-10T16:35:16;0.30;;;0.30;;
20842;SDS011;26719;51.440;-2.574;2022-12-10T16:37:43;0.33;;;0.33;;
20842;SDS011;26719;51.440;-2.574;2022-12-10T16:40:10;0.20;;;0.20;;
20842;SDS011;26719;51.440;-2.574;2022-12-10T16:42:36;0.37;;;0.37;;
20842;SDS011;26719;51.440;-2.574;2022-12-10T16:45:05;0.30;;;0.30;;
20842;SDS011;26719;51.440;-2.574;2022-12-10T16:47:35;0.30;;;0.30;;
20842;SDS011;26719;51.440;-2.574;2022-12-10T16:50:01;0.30;;;0.30;;
20842;SDS011;26719;51.440;-2.574;2022-12-10T16:52:27;0.30;;;0.30;;
20842;SDS011;26719;51.440;-2.574;2022-12-10T16:54:53;0.30;;;0.30;;
20842;SDS011;26719;51.440;-2.574;2022-12-10T16:57:19;0.30;;;0.30;;
20842;SDS011;26719;51.440;-2.574;2022-12-10T16:59:45;0.20;;;0.20;;
20842;SDS011;26719;51.440;-2.574;2022-12-10T17:02:15;0.40;;;0.40;;